»·PEaware :: N698J KBUR-KSAN

N698J :: KBUR-KSAN

FLIGHT INFORMATION

Flight Status: Arrived
Operator: Privately registered:
United States
More flights under this callsign
Pilot: Ahmad S. (5672)
Aircraft: BEECH AIRCRAFT BARON
(BE58)
More flights by this aircraft type
Origin: KBUR Bob Hope-Burbank
United States
Destination: KSAN San Diego Intl-Lindbergh
United States
More flights between these airports :: More routes between these airports
Route: ELMOO9 ELMOO V186 HAILE V66 MZB
File this flight plan on PilotEdge
Remarks:
Altitude:
(Current/Filed)
9,000ft
Speed:
(Current/Filed)
175kts
Departed: 10-Jan-21 02:41 PM
Arrived: 10-Jan-21 03:32 PM
Distance/Time
Traveled:
106nm/0:51
Distance/Time
To Go:
Arrived

Flight Plot

Page will automatically refresh every two minutes.

Flight plan parsing failed; only flown route is shown


Map Options




Map Legend


Flown Route
Filed Route
Departure Airport
Arrival Airport
Navaid (VOR, NDB)
Fix

Horizontal Profiles

Position Reports

Time Latitude Longitude Heading Altitude Ground
Speed
10-Jan-21 14:13 34.200500 -118.358851 83 721ft 0kts
10-Jan-21 14:13 34.200500 -118.358851 83 721ft 0kts
10-Jan-21 14:14 34.200500 -118.358851 83 721ft 0kts
10-Jan-21 14:16 34.200500 -118.358851 83 721ft 0kts
10-Jan-21 14:16 34.200500 -118.358851 83 721ft 0kts
10-Jan-21 14:17 34.200500 -118.358851 83 721ft 0kts
10-Jan-21 14:18 34.200500 -118.358851 83 721ft 0kts
10-Jan-21 14:19 34.200500 -118.358851 83 721ft 0kts
10-Jan-21 14:20 34.200500 -118.358851 83 721ft 0kts
10-Jan-21 14:21 34.200500 -118.358851 83 721ft 0kts
10-Jan-21 14:22 34.200500 -118.358851 83 721ft 0kts
10-Jan-21 14:23 34.200500 -118.358851 83 721ft 0kts
10-Jan-21 14:24 34.200500 -118.358851 83 721ft 0kts
10-Jan-21 14:25 34.200500 -118.358851 83 721ft 0kts
10-Jan-21 14:26 34.200500 -118.358851 83 721ft 0kts
10-Jan-21 14:27 34.200500 -118.358851 83 721ft 0kts
10-Jan-21 14:28 34.200500 -118.358851 83 721ft 0kts
10-Jan-21 14:29 34.200500 -118.358851 83 721ft 0kts
10-Jan-21 14:30 34.200500 -118.358851 83 721ft 0kts
10-Jan-21 14:31 34.200500 -118.358851 83 721ft 0kts
10-Jan-21 14:32 34.200500 -118.358851 83 721ft 0kts
10-Jan-21 14:33 34.200500 -118.358851 83 721ft 0kts
10-Jan-21 14:34 34.200500 -118.358851 83 721ft 0kts
10-Jan-21 14:35 34.202215 -118.358796 347 726ft 17kts
10-Jan-21 14:36 34.210850 -118.361197 346 777ft 29kts
10-Jan-21 14:37 34.211941 -118.361383 41 781ft 0kts
10-Jan-21 14:38 34.211941 -118.361383 41 781ft 0kts
10-Jan-21 14:39 34.212053 -118.361249 52 781ft 6kts
10-Jan-21 14:40 34.202082 -118.357683 167 849ft 126kts
10-Jan-21 14:41 34.175410 -118.322954 125 2959ft 150kts
10-Jan-21 14:42 34.156755 -118.270394 108 3938ft 192kts
10-Jan-21 14:43 34.139753 -118.214631 107 5439ft 162kts
10-Jan-21 14:44 34.124585 -118.167270 108 6987ft 166kts
10-Jan-21 14:45 34.110733 -118.120593 108 8189ft 173kts
10-Jan-21 14:46 34.093098 -118.064073 108 8939ft 192kts
10-Jan-21 14:47 34.073614 -118.004767 108 8995ft 200kts
10-Jan-21 14:48 34.053453 -117.942506 109 8998ft 201kts
10-Jan-21 14:49 34.035156 -117.886233 108 9002ft 201kts
10-Jan-21 14:50 34.018069 -117.833984 108 9018ft 200kts
10-Jan-21 14:51 34.004782 -117.793249 108 9023ft 200kts
10-Jan-21 14:52 33.993754 -117.759554 109 9018ft 200kts
10-Jan-21 14:53 33.975223 -117.702960 109 9012ft 200kts
10-Jan-21 14:54 33.954793 -117.640753 109 9010ft 199kts
10-Jan-21 14:55 33.934372 -117.578667 109 9009ft 199kts
10-Jan-21 14:56 33.905641 -117.522548 135 8999ft 201kts
10-Jan-21 14:57 33.860756 -117.481700 144 9001ft 203kts
10-Jan-21 14:58 33.814550 -117.442796 143 9001ft 203kts
10-Jan-21 14:59 33.768190 -117.404228 143 9000ft 202kts
10-Jan-21 15:00 33.722117 -117.365662 143 9008ft 202kts
10-Jan-21 15:01 33.675920 -117.327092 144 9049ft 202kts
10-Jan-21 15:02 33.629577 -117.288462 144 9050ft 203kts
10-Jan-21 15:03 33.583149 -117.249831 144 9048ft 202kts
10-Jan-21 15:04 33.536686 -117.211125 143 9002ft 202kts
10-Jan-21 15:05 33.490383 -117.172833 146 8993ft 202kts
10-Jan-21 15:06 33.437258 -117.151184 169 8990ft 202kts
10-Jan-21 15:07 33.381467 -117.141420 168 8990ft 202kts
10-Jan-21 15:08 33.326085 -117.129440 170 8994ft 203kts
10-Jan-21 15:09 33.275106 -117.101310 148 8745ft 210kts
10-Jan-21 15:10 33.224419 -117.065707 148 7935ft 210kts
10-Jan-21 15:11 33.174012 -117.030056 148 7134ft 209kts
10-Jan-21 15:12 33.124014 -116.994634 148 6325ft 208kts
10-Jan-21 15:13 33.074377 -116.959421 148 5532ft 207kts
10-Jan-21 15:14 33.025180 -116.924555 148 4987ft 201kts
10-Jan-21 15:15 32.977553 -116.890905 148 4951ft 198kts
10-Jan-21 15:16 32.930112 -116.857509 148 4938ft 197kts
10-Jan-21 15:17 32.882949 -116.824339 148 4941ft 196kts
10-Jan-21 15:18 32.835899 -116.791250 148 4937ft 197kts
10-Jan-21 15:19 32.788657 -116.758114 148 4944ft 197kts
10-Jan-21 15:20 32.750156 -116.781552 262 4944ft 203kts
10-Jan-21 15:21 32.730259 -116.838950 204 4942ft 201kts
10-Jan-21 15:22 32.688362 -116.878602 246 4943ft 203kts
10-Jan-21 15:23 32.678095 -116.938328 272 4305ft 158kts
10-Jan-21 15:24 32.684252 -116.986811 284 3437ft 133kts
10-Jan-21 15:25 32.694205 -117.026888 286 2732ft 120kts
10-Jan-21 15:26 32.703778 -117.067318 287 2099ft 133kts
10-Jan-21 15:27 32.713838 -117.108099 286 1722ft 129kts
10-Jan-21 15:28 32.721215 -117.138525 288 1000ft 85kts
10-Jan-21 15:29 32.727285 -117.163866 289 341ft 74kts
10-Jan-21 15:30 32.732799 -117.186101 285 19ft 46kts
10-Jan-21 15:31 32.734049 -117.188088 19 16ft 0kts
10-Jan-21 15:32 32.733880 -117.186186 110 17ft 13kts
10-Jan-21 15:33 32.734175 -117.183855 44 18ft 2kts
10-Jan-21 15:34 32.734153 -117.183374 33 18ft 0kts
10-Jan-21 15:35 32.734248 -117.183216 81 18ft 0kts
10-Jan-21 15:36 32.734248 -117.183216 81 18ft 0kts
10-Jan-21 15:37 32.734248 -117.183216 81 18ft 0kts
10-Jan-21 15:38 32.734248 -117.183216 81 18ft 0kts
10-Jan-21 15:40 32.734248 -117.183216 81 18ft 0kts
10-Jan-21 15:41 32.734248 -117.183216 81 18ft 0kts
10-Jan-21 15:42 32.734248 -117.183216 81 18ft 0kts
10-Jan-21 15:43 32.734248 -117.183216 81 18ft 0kts
10-Jan-21 15:44 32.734248 -117.183216 81 18ft 0kts
10-Jan-21 15:45 32.734248 -117.183216 81 18ft 0kts
10-Jan-21 15:46 32.734248 -117.183216 81 18ft 0kts

Navigation Log

Ident Type
Flight plan parsing failed, navigation log unavailable